sensor_id;sensor_type;location;lat;lon;timestamp;temperature;humidity
17726;DHT22;8983;53.156;17.960;2022-12-07T00:01:20;3.40;99.90
17726;DHT22;8983;53.156;17.960;2022-12-07T00:03:50;3.30;99.90
17726;DHT22;8983;53.156;17.960;2022-12-07T00:06:20;3.30;99.90
17726;DHT22;8983;53.156;17.960;2022-12-07T00:08:48;3.30;99.90
17726;DHT22;8983;53.156;17.960;2022-12-07T00:11:18;3.30;99.90
17726;DHT22;8983;53.156;17.960;2022-12-07T00:13:47;3.30;99.90
17726;DHT22;8983;53.156;17.960;2022-12-07T00:16:18;3.30;99.90
17726;DHT22;8983;53.156;17.960;2022-12-07T00:18:46;3.30;99.90
17726;DHT22;8983;53.156;17.960;2022-12-07T00:21:16;3.30;99.90
17726;DHT22;8983;53.156;17.960;2022-12-07T00:23:45;3.30;99.90
17726;DHT22;8983;53.156;17.960;2022-12-07T00:26:16;3.20;99.90
17726;DHT22;8983;53.156;17.960;2022-12-07T00:28:45;3.20;99.90
17726;DHT22;8983;53.156;17.960;2022-12-07T00:31:15;3.20;99.90
17726;DHT22;8983;53.156;17.960;2022-12-07T00:33:45;3.20;99.90
17726;DHT22;8983;53.156;17.960;2022-12-07T00:36:15;3.10;99.90
17726;DHT22;8983;53.156;17.960;2022-12-07T00:38:50;3.20;99.90
17726;DHT22;8983;53.156;17.960;2022-12-07T00:41:19;3.20;99.90
17726;DHT22;8983;53.156;17.960;2022-12-07T00:43:49;3.20;99.90
17726;DHT22;8983;53.156;17.960;2022-12-07T00:46:19;3.20;99.90
17726;DHT22;8983;53.156;17.960;2022-12-07T00:48:49;3.20;99.90
17726;DHT22;8983;53.156;17.960;2022-12-07T00:51:19;3.10;99.90
17726;DHT22;8983;53.156;17.960;2022-12-07T00:53:47;3.10;99.90
17726;DHT22;8983;53.156;17.960;2022-12-07T00:56:20;3.10;99.90
17726;DHT22;8983;53.156;17.960;2022-12-07T00:58:52;3.10;99.90
17726;DHT22;8983;53.156;17.960;2022-12-07T01:01:27;3.10;99.90
17726;DHT22;8983;53.156;17.960;2022-12-07T01:03:57;3.10;99.90
17726;DHT22;8983;53.156;17.960;2022-12-07T01:06:28;3.10;99.90
17726;DHT22;8983;53.156;17.960;2022-12-07T01:08:56;3.10;99.90
17726;DHT22;8983;53.156;17.960;2022-12-07T01:11:26;3.10;99.90
17726;DHT22;8983;53.156;17.960;2022-12-07T01:13:55;3.10;99.90
17726;DHT22;8983;53.156;17.960;2022-12-07T01:16:25;3.10;99.90
17726;DHT22;8983;53.156;17.960;2022-12-07T01:18:55;3.10;99.90
17726;DHT22;8983;53.156;17.960;2022-12-07T01:21:26;3.10;99.90
17726;DHT22;8983;53.156;17.960;2022-12-07T01:23:56;3.10;99.90
17726;DHT22;8983;53.156;17.960;2022-12-07T01:26:25;3.10;99.90
17726;DHT22;8983;53.156;17.960;2022-12-07T01:28:53;3.10;99.90
17726;DHT22;8983;53.156;17.960;2022-12-07T01:31:23;3.10;99.90
17726;DHT22;8983;53.156;17.960;2022-12-07T01:33:53;3.10;99.90
17726;DHT22;8983;53.156;17.960;2022-12-07T01:36:25;3.10;99.90
17726;DHT22;8983;53.156;17.960;2022-12-07T01:38:55;3.10;99.90
17726;DHT22;8983;53.156;17.960;2022-12-07T01:41:25;3.10;99.90
17726;DHT22;8983;53.156;17.960;2022-12-07T01:44:24;3.10;99.90
17726;DHT22;8983;53.156;17.960;2022-12-07T01:46:53;3.00;99.90
17726;DHT22;8983;53.156;17.960;2022-12-07T01:49:28;3.00;99.90
17726;DHT22;8983;53.156;17.960;2022-12-07T01:52:04;3.00;99.90
17726;DHT22;8983;53.156;17.960;2022-12-07T01:54:36;3.00;99.90
17726;DHT22;8983;53.156;17.960;2022-12-07T01:57:05;3.10;99.90
17726;DHT22;8983;53.156;17.960;2022-12-07T01:59:33;3.10;99.90
17726;DHT22;8983;53.156;17.960;2022-12-07T02:02:05;3.10;99.90
17726;DHT22;8983;53.156;17.960;2022-12-07T02:04:36;3.10;99.90
17726;DHT22;8983;53.156;17.960;2022-12-07T02:07:05;3.10;99.90
17726;DHT22;8983;53.156;17.960;2022-12-07T02:09:34;3.10;99.90
17726;DHT22;8983;53.156;17.960;2022-12-07T02:12:02;3.10;99.90
17726;DHT22;8983;53.156;17.960;2022-12-07T02:14:30;3.10;99.90
17726;DHT22;8983;53.156;17.960;2022-12-07T02:17:06;3.10;99.90
17726;DHT22;8983;53.156;17.960;2022-12-07T02:20:00;3.10;99.90
17726;DHT22;8983;53.156;17.960;2022-12-07T02:23:12;3.10;99.90
17726;DHT22;8983;53.156;17.960;2022-12-07T02:26:02;3.20;99.90
17726;DHT22;8983;53.156;17.960;2022-12-07T02:28:52;3.20;99.90
17726;DHT22;8983;53.156;17.960;2022-12-07T02:31:23;3.10;99.90
17726;DHT22;8983;53.156;17.960;2022-12-07T02:33:57;3.10;99.90
17726;DHT22;8983;53.156;17.960;2022-12-07T02:36:32;3.10;99.90
17726;DHT22;8983;53.156;17.960;2022-12-07T02:39:08;3.10;99.90
17726;DHT22;8983;53.156;17.960;2022-12-07T02:41:40;3.20;99.90
17726;DHT22;8983;53.156;17.960;2022-12-07T02:44:14;3.20;99.90
17726;DHT22;8983;53.156;17.960;2022-12-07T02:46:47;3.20;99.90
17726;DHT22;8983;53.156;17.960;2022-12-07T02:49:17;3.20;99.90
17726;DHT22;8983;53.156;17.960;2022-12-07T02:51:46;3.20;99.90
17726;DHT22;8983;53.156;17.960;2022-12-07T02:54:16;3.20;99.90
17726;DHT22;8983;53.156;17.960;2022-12-07T02:56:48;3.20;99.90
17726;DHT22;8983;53.156;17.960;2022-12-07T02:59:26;3.20;99.90
17726;DHT22;8983;53.156;17.960;2022-12-07T03:02:06;3.30;99.90
17726;DHT22;8983;53.156;17.960;2022-12-07T03:04:42;3.30;99.90
17726;DHT22;8983;53.156;17.960;2022-12-07T03:07:21;3.30;99.90
17726;DHT22;8983;53.156;17.960;2022-12-07T03:09:57;3.30;99.90
17726;DHT22;8983;53.156;17.960;2022-12-07T03:12:31;3.30;99.90
17726;DHT22;8983;53.156;17.960;2022-12-07T03:15:04;3.30;99.90
17726;DHT22;8983;53.156;17.960;2022-12-07T03:17:37;3.40;99.90
17726;DHT22;8983;53.156;17.960;2022-12-07T03:20:10;3.30;99.90
17726;DHT22;8983;53.156;17.960;2022-12-07T03:22:40;3.30;99.90
17726;DHT22;8983;53.156;17.960;2022-12-07T03:25:10;3.40;99.90
17726;DHT22;8983;53.156;17.960;2022-12-07T03:27:44;3.40;99.90
17726;DHT22;8983;53.156;17.960;2022-12-07T03:30:18;3.40;99.90
17726;DHT22;8983;53.156;17.960;2022-12-07T03:32:50;3.30;99.90
17726;DHT22;8983;53.156;17.960;2022-12-07T03:35:23;3.30;99.90
17726;DHT22;8983;53.156;17.960;2022-12-07T03:37:55;3.30;99.90
17726;DHT22;8983;53.156;17.960;2022-12-07T03:40:29;3.30;99.90
17726;DHT22;8983;53.156;17.960;2022-12-07T03:42:59;3.30;99.90
17726;DHT22;8983;53.156;17.960;2022-12-07T03:45:36;3.30;99.90
17726;DHT22;8983;53.156;17.960;2022-12-07T03:48:08;3.30;99.90
17726;DHT22;8983;53.156;17.960;2022-12-07T03:50:43;3.30;99.90
17726;DHT22;8983;53.156;17.960;2022-12-07T03:53:16;3.30;99.90
17726;DHT22;8983;53.156;17.960;2022-12-07T03:55:47;3.30;99.90
17726;DHT22;8983;53.156;17.960;2022-12-07T03:58:18;3.30;99.90
17726;DHT22;8983;53.156;17.960;2022-12-07T04:00:49;3.30;99.90
17726;DHT22;8983;53.156;17.960;2022-12-07T04:03:17;3.30;99.90
17726;DHT22;8983;53.156;17.960;2022-12-07T04:05:45;3.30;99.90
17726;DHT22;8983;53.156;17.960;2022-12-07T04:08:13;3.30;99.90
17726;DHT22;8983;53.156;17.960;2022-12-07T04:10:41;3.20;99.90
17726;DHT22;8983;53.156;17.960;2022-12-07T04:13:09;3.30;99.90
17726;DHT22;8983;53.156;17.960;2022-12-07T04:15:37;3.30;99.90
17726;DHT22;8983;53.156;17.960;2022-12-07T04:18:06;3.30;99.90
17726;DHT22;8983;53.156;17.960;2022-12-07T04:20:34;3.30;99.90
17726;DHT22;8983;53.156;17.960;2022-12-07T04:23:02;3.20;99.90
17726;DHT22;8983;53.156;17.960;2022-12-07T04:25:30;3.20;99.90
17726;DHT22;8983;53.156;17.960;2022-12-07T04:27:58;3.20;99.90
17726;DHT22;8983;53.156;17.960;2022-12-07T04:30:26;3.20;99.90
17726;DHT22;8983;53.156;17.960;2022-12-07T04:32:54;3.20;99.90
17726;DHT22;8983;53.156;17.960;2022-12-07T04:35:23;3.20;99.90
17726;DHT22;8983;53.156;17.960;2022-12-07T04:37:51;3.20;99.90
17726;DHT22;8983;53.156;17.960;2022-12-07T04:40:19;3.20;99.90
17726;DHT22;8983;53.156;17.960;2022-12-07T04:42:47;3.10;99.90
17726;DHT22;8983;53.156;17.960;2022-12-07T04:45:15;3.00;99.90
17726;DHT22;8983;53.156;17.960;2022-12-07T04:47:43;3.00;99.90
17726;DHT22;8983;53.156;17.960;2022-12-07T04:50:11;3.00;99.90
17726;DHT22;8983;53.156;17.960;2022-12-07T04:52:40;3.00;99.90
17726;DHT22;8983;53.156;17.960;2022-12-07T04:55:08;3.00;99.90
17726;DHT22;8983;53.156;17.960;2022-12-07T04:57:36;2.90;99.90
17726;DHT22;8983;53.156;17.960;2022-12-07T05:00:05;2.90;99.90
17726;DHT22;8983;53.156;17.960;2022-12-07T05:02:33;3.00;99.90
17726;DHT22;8983;53.156;17.960;2022-12-07T05:05:01;2.90;99.90
17726;DHT22;8983;53.156;17.960;2022-12-07T05:07:29;2.90;99.90
17726;DHT22;8983;53.156;17.960;2022-12-07T05:10:00;2.90;99.90
17726;DHT22;8983;53.156;17.960;2022-12-07T05:12:28;2.90;99.90
17726;DHT22;8983;53.156;17.960;2022-12-07T05:14:56;2.90;99.90
17726;DHT22;8983;53.156;17.960;2022-12-07T05:17:24;2.90;99.90
17726;DHT22;8983;53.156;17.960;2022-12-07T05:19:52;2.90;99.90
17726;DHT22;8983;53.156;17.960;2022-12-07T05:22:20;2.80;99.90
17726;DHT22;8983;53.156;17.960;2022-12-07T05:24:48;2.70;99.90
17726;DHT22;8983;53.156;17.960;2022-12-07T05:27:17;2.70;99.90
17726;DHT22;8983;53.156;17.960;2022-12-07T05:29:45;2.70;99.90
17726;DHT22;8983;53.156;17.960;2022-12-07T05:32:13;2.60;99.90
17726;DHT22;8983;53.156;17.960;2022-12-07T05:34:41;2.60;99.90
17726;DHT22;8983;53.156;17.960;2022-12-07T05:37:09;2.40;99.90
17726;DHT22;8983;53.156;17.960;2022-12-07T05:39:37;2.40;99.90
17726;DHT22;8983;53.156;17.960;2022-12-07T05:42:08;2.40;99.90
17726;DHT22;8983;53.156;17.960;2022-12-07T05:44:43;2.30;99.90
17726;DHT22;8983;53.156;17.960;2022-12-07T05:47:11;2.30;99.90
17726;DHT22;8983;53.156;17.960;2022-12-07T05:49:39;2.20;99.90
17726;DHT22;8983;53.156;17.960;2022-12-07T05:52:07;2.30;99.90
17726;DHT22;8983;53.156;17.960;2022-12-07T05:54:35;2.20;99.90
17726;DHT22;8983;53.156;17.960;2022-12-07T05:57:03;2.30;99.90
17726;DHT22;8983;53.156;17.960;2022-12-07T05:59:31;2.20;99.90
17726;DHT22;8983;53.156;17.960;2022-12-07T06:02:01;2.30;99.90
17726;DHT22;8983;53.156;17.960;2022-12-07T06:04:33;2.30;99.90
17726;DHT22;8983;53.156;17.960;2022-12-07T06:07:01;2.30;99.90
17726;DHT22;8983;53.156;17.960;2022-12-07T06:09:29;2.20;99.90
17726;DHT22;8983;53.156;17.960;2022-12-07T06:12:04;2.20;99.90
17726;DHT22;8983;53.156;17.960;2022-12-07T06:14:59;2.20;99.90
17726;DHT22;8983;53.156;17.960;2022-12-07T06:17:47;2.10;99.90
17726;DHT22;8983;53.156;17.960;2022-12-07T06:20:15;2.10;99.90
17726;DHT22;8983;53.156;17.960;2022-12-07T06:22:43;2.00;99.90
17726;DHT22;8983;53.156;17.960;2022-12-07T06:25:11;2.00;99.90
17726;DHT22;8983;53.156;17.960;2022-12-07T06:27:39;1.90;99.90
17726;DHT22;8983;53.156;17.960;2022-12-07T06:30:07;1.90;99.90
17726;DHT22;8983;53.156;17.960;2022-12-07T06:32:36;1.90;99.90
17726;DHT22;8983;53.156;17.960;2022-12-07T06:35:07;1.90;99.90
17726;DHT22;8983;53.156;17.960;2022-12-07T06:37:35;2.00;99.90
17726;DHT22;8983;53.156;17.960;2022-12-07T06:40:04;1.90;99.90
17726;DHT22;8983;53.156;17.960;2022-12-07T06:42:32;1.90;99.90
17726;DHT22;8983;53.156;17.960;2022-12-07T06:45:00;1.90;99.90
17726;DHT22;8983;53.156;17.960;2022-12-07T06:47:28;1.90;99.90
17726;DHT22;8983;53.156;17.960;2022-12-07T06:50:14;1.80;99.90
17726;DHT22;8983;53.156;17.960;2022-12-07T06:52:41;1.90;99.90
17726;DHT22;8983;53.156;17.960;2022-12-07T06:55:09;1.80;99.90
17726;DHT22;8983;53.156;17.960;2022-12-07T06:57:37;1.80;99.90
17726;DHT22;8983;53.156;17.960;2022-12-07T07:00:06;1.80;99.90
17726;DHT22;8983;53.156;17.960;2022-12-07T07:02:34;1.80;99.90
17726;DHT22;8983;53.156;17.960;2022-12-07T07:05:03;1.80;99.90
17726;DHT22;8983;53.156;17.960;2022-12-07T07:07:32;1.80;99.90
17726;DHT22;8983;53.156;17.960;2022-12-07T07:10:20;1.80;99.90
17726;DHT22;8983;53.156;17.960;2022-12-07T07:12:48;1.80;99.90
17726;DHT22;8983;53.156;17.960;2022-12-07T07:15:22;1.80;99.90
17726;DHT22;8983;53.156;17.960;2022-12-07T07:17:50;1.80;99.90
17726;DHT22;8983;53.156;17.960;2022-12-07T07:20:18;1.80;99.90
17726;DHT22;8983;53.156;17.960;2022-12-07T07:22:48;1.80;99.90
17726;DHT22;8983;53.156;17.960;2022-12-07T07:25:16;1.80;99.90
17726;DHT22;8983;53.156;17.960;2022-12-07T07:27:44;1.80;99.90
17726;DHT22;8983;53.156;17.960;2022-12-07T07:30:12;1.80;99.90
17726;DHT22;8983;53.156;17.960;2022-12-07T07:32:40;1.80;99.90
17726;DHT22;8983;53.156;17.960;2022-12-07T07:35:08;1.80;99.90
17726;DHT22;8983;53.156;17.960;2022-12-07T07:37:36;1.80;99.90
17726;DHT22;8983;53.156;17.960;2022-12-07T07:40:07;1.80;99.90
17726;DHT22;8983;53.156;17.960;2022-12-07T07:42:35;1.70;99.90
17726;DHT22;8983;53.156;17.960;2022-12-07T07:45:04;1.70;99.90
17726;DHT22;8983;53.156;17.960;2022-12-07T07:47:32;1.80;99.90
17726;DHT22;8983;53.156;17.960;2022-12-07T07:50:00;1.80;99.90
17726;DHT22;8983;53.156;17.960;2022-12-07T07:52:28;1.80;99.90
17726;DHT22;8983;53.156;17.960;2022-12-07T07:54:56;1.80;99.90
17726;DHT22;8983;53.156;17.960;2022-12-07T07:57:25;1.70;99.90
17726;DHT22;8983;53.156;17.960;2022-12-07T07:59:53;1.70;99.90
17726;DHT22;8983;53.156;17.960;2022-12-07T08:02:22;1.70;99.90
17726;DHT22;8983;53.156;17.960;2022-12-07T08:04:50;1.70;99.90
17726;DHT22;8983;53.156;17.960;2022-12-07T08:07:17;1.70;99.90
17726;DHT22;8983;53.156;17.960;2022-12-07T08:09:45;1.70;99.90
17726;DHT22;8983;53.156;17.960;2022-12-07T08:12:13;1.70;99.90
17726;DHT22;8983;53.156;17.960;2022-12-07T08:14:43;1.70;99.90
17726;DHT22;8983;53.156;17.960;2022-12-07T08:17:10;1.70;99.90
17726;DHT22;8983;53.156;17.960;2022-12-07T08:19:39;1.80;99.90
17726;DHT22;8983;53.156;17.960;2022-12-07T08:22:07;1.90;99.90
17726;DHT22;8983;53.156;17.960;2022-12-07T08:24:35;1.90;99.90
17726;DHT22;8983;53.156;17.960;2022-12-07T08:27:03;1.90;99.90
17726;DHT22;8983;53.156;17.960;2022-12-07T08:29:31;1.90;99.90
17726;DHT22;8983;53.156;17.960;2022-12-07T08:32:00;1.90;99.90
17726;DHT22;8983;53.156;17.960;2022-12-07T08:34:35;1.80;99.90
17726;DHT22;8983;53.156;17.960;2022-12-07T08:37:03;1.80;99.90
17726;DHT22;8983;53.156;17.960;2022-12-07T08:39:31;1.90;99.90
17726;DHT22;8983;53.156;17.960;2022-12-07T08:41:59;2.00;99.90
17726;DHT22;8983;53.156;17.960;2022-12-07T08:44:27;2.00;99.90
17726;DHT22;8983;53.156;17.960;2022-12-07T08:47:00;2.00;99.90
17726;DHT22;8983;53.156;17.960;2022-12-07T08:49:32;2.00;99.90
17726;DHT22;8983;53.156;17.960;2022-12-07T08:52:04;1.90;99.90
17726;DHT22;8983;53.156;17.960;2022-12-07T08:54:34;1.90;99.90
17726;DHT22;8983;53.156;17.960;2022-12-07T08:57:03;1.90;99.90
17726;DHT22;8983;53.156;17.960;2022-12-07T08:59:33;2.00;99.90
17726;DHT22;8983;53.156;17.960;2022-12-07T09:02:03;2.00;99.90
17726;DHT22;8983;53.156;17.960;2022-12-07T09:04:31;2.10;99.90
17726;DHT22;8983;53.156;17.960;2022-12-07T09:06:59;2.00;99.90
17726;DHT22;8983;53.156;17.960;2022-12-07T09:09:27;2.00;99.90
17726;DHT22;8983;53.156;17.960;2022-12-07T09:11:55;2.10;99.90
17726;DHT22;8983;53.156;17.960;2022-12-07T09:14:24;2.20;99.90
17726;DHT22;8983;53.156;17.960;2022-12-07T09:16:52;2.20;99.90
17726;DHT22;8983;53.156;17.960;2022-12-07T09:19:21;2.30;99.90
17726;DHT22;8983;53.156;17.960;2022-12-07T09:21:49;2.30;99.90
17726;DHT22;8983;53.156;17.960;2022-12-07T09:24:17;2.30;99.90
17726;DHT22;8983;53.156;17.960;2022-12-07T09:26:45;2.40;99.90
17726;DHT22;8983;53.156;17.960;2022-12-07T09:29:13;2.30;99.90
17726;DHT22;8983;53.156;17.960;2022-12-07T09:31:41;2.30;99.90
17726;DHT22;8983;53.156;17.960;2022-12-07T09:34:09;2.40;99.90
17726;DHT22;8983;53.156;17.960;2022-12-07T09:36:38;2.50;99.90
17726;DHT22;8983;53.156;17.960;2022-12-07T09:39:06;2.50;99.90
17726;DHT22;8983;53.156;17.960;2022-12-07T09:41:37;2.50;99.90
17726;DHT22;8983;53.156;17.960;2022-12-07T09:44:09;2.50;99.90
17726;DHT22;8983;53.156;17.960;2022-12-07T09:46:39;2.50;99.90
17726;DHT22;8983;53.156;17.960;2022-12-07T09:49:12;2.50;99.90
17726;DHT22;8983;53.156;17.960;2022-12-07T09:51:43;2.50;99.90
17726;DHT22;8983;53.156;17.960;2022-12-07T09:54:13;2.50;99.90
17726;DHT22;8983;53.156;17.960;2022-12-07T09:56:41;2.50;99.90
17726;DHT22;8983;53.156;17.960;2022-12-07T09:59:15;2.60;99.90
17726;DHT22;8983;53.156;17.960;2022-12-07T10:01:45;2.60;99.90
17726;DHT22;8983;53.156;17.960;2022-12-07T10:04:16;2.70;99.90
17726;DHT22;8983;53.156;17.960;2022-12-07T10:06:46;2.70;99.90
17726;DHT22;8983;53.156;17.960;2022-12-07T10:09:16;2.70;99.90
17726;DHT22;8983;53.156;17.960;2022-12-07T10:12:01;2.70;99.90
17726;DHT22;8983;53.156;17.960;2022-12-07T10:14:32;2.70;99.90
17726;DHT22;8983;53.156;17.960;2022-12-07T10:17:33;2.60;99.90
17726;DHT22;8983;53.156;17.960;2022-12-07T10:20:20;2.70;99.90
17726;DHT22;8983;53.156;17.960;2022-12-07T10:22:58;2.70;99.90
17726;DHT22;8983;53.156;17.960;2022-12-07T10:25:28;2.70;99.90
17726;DHT22;8983;53.156;17.960;2022-12-07T10:28:09;2.70;99.90
17726;DHT22;8983;53.156;17.960;2022-12-07T10:30:47;2.70;99.90
17726;DHT22;8983;53.156;17.960;2022-12-07T10:33:28;2.70;99.90
17726;DHT22;8983;53.156;17.960;2022-12-07T10:35:57;2.70;99.90
17726;DHT22;8983;53.156;17.960;2022-12-07T10:38:27;2.70;99.90
17726;DHT22;8983;53.156;17.960;2022-12-07T10:41:04;2.70;99.90
17726;DHT22;8983;53.156;17.960;2022-12-07T10:43:32;2.60;99.90
17726;DHT22;8983;53.156;17.960;2022-12-07T10:46:18;2.60;99.90
17726;DHT22;8983;53.156;17.960;2022-12-07T10:48:57;2.70;99.90
17726;DHT22;8983;53.156;17.960;2022-12-07T10:51:33;2.70;99.90
17726;DHT22;8983;53.156;17.960;2022-12-07T10:54:12;2.70;99.90
17726;DHT22;8983;53.156;17.960;2022-12-07T10:57:05;2.70;99.90
17726;DHT22;8983;53.156;17.960;2022-12-07T10:59:57;2.70;99.90
17726;DHT22;8983;53.156;17.960;2022-12-07T11:03:08;2.60;99.90
17726;DHT22;8983;53.156;17.960;2022-12-07T11:05:46;2.60;99.90
17726;DHT22;8983;53.156;17.960;2022-12-07T11:08:22;2.60;99.90
17726;DHT22;8983;53.156;17.960;2022-12-07T11:10:57;2.60;99.90
17726;DHT22;8983;53.156;17.960;2022-12-07T11:13:30;2.60;99.90
17726;DHT22;8983;53.156;17.960;2022-12-07T11:16:19;2.70;99.90
17726;DHT22;8983;53.156;17.960;2022-12-07T11:18:59;2.70;99.90
17726;DHT22;8983;53.156;17.960;2022-12-07T11:21:33;2.60;99.90
17726;DHT22;8983;53.156;17.960;2022-12-07T11:24:08;2.60;99.90
17726;DHT22;8983;53.156;17.960;2022-12-07T11:26:51;2.60;99.90
17726;DHT22;8983;53.156;17.960;2022-12-07T11:29:39;2.60;99.90
17726;DHT22;8983;53.156;17.960;2022-12-07T11:32:14;2.60;99.90
17726;DHT22;8983;53.156;17.960;2022-12-07T11:34:53;2.50;99.90
17726;DHT22;8983;53.156;17.960;2022-12-07T11:37:28;2.50;99.90
17726;DHT22;8983;53.156;17.960;2022-12-07T11:40:14;2.60;99.90
17726;DHT22;8983;53.156;17.960;2022-12-07T11:42:50;2.60;99.90
17726;DHT22;8983;53.156;17.960;2022-12-07T11:45:22;2.60;99.90
17726;DHT22;8983;53.156;17.960;2022-12-07T11:47:54;2.60;99.90
17726;DHT22;8983;53.156;17.960;2022-12-07T11:50:32;2.60;99.90
17726;DHT22;8983;53.156;17.960;2022-12-07T11:53:03;2.60;99.90
17726;DHT22;8983;53.156;17.960;2022-12-07T11:55:41;2.60;99.90
17726;DHT22;8983;53.156;17.960;2022-12-07T11:58:36;2.60;99.90
17726;DHT22;8983;53.156;17.960;2022-12-07T12:01:14;2.70;99.90
17726;DHT22;8983;53.156;17.960;2022-12-07T12:03:45;2.60;99.90
17726;DHT22;8983;53.156;17.960;2022-12-07T12:06:19;2.60;99.90
17726;DHT22;8983;53.156;17.960;2022-12-07T12:08:53;2.60;99.90
17726;DHT22;8983;53.156;17.960;2022-12-07T12:12:04;2.60;99.90
17726;DHT22;8983;53.156;17.960;2022-12-07T12:15:08;2.60;99.90
17726;DHT22;8983;53.156;17.960;2022-12-07T12:17:55;2.80;99.90
17726;DHT22;8983;53.156;17.960;2022-12-07T12:20:26;2.60;99.90
17726;DHT22;8983;53.156;17.960;2022-12-07T12:22:58;2.50;99.90
17726;DHT22;8983;53.156;17.960;2022-12-07T12:25:29;2.20;99.90
17726;DHT22;8983;53.156;17.960;2022-12-07T12:27:59;2.80;99.90
17726;DHT22;8983;53.156;17.960;2022-12-07T12:30:35;2.60;99.90
17726;DHT22;8983;53.156;17.960;2022-12-07T12:33:14;2.60;99.90
17726;DHT22;8983;53.156;17.960;2022-12-07T12:38:27;2.50;99.90
17726;DHT22;8983;53.156;17.960;2022-12-07T12:40:59;2.40;99.90
17726;DHT22;8983;53.156;17.960;2022-12-07T12:43:57;2.30;99.90
17726;DHT22;8983;53.156;17.960;2022-12-07T12:46:52;2.30;99.90
17726;DHT22;8983;53.156;17.960;2022-12-07T12:52:55;2.40;99.90
17726;DHT22;8983;53.156;17.960;2022-12-07T12:55:51;2.40;99.90
17726;DHT22;8983;53.156;17.960;2022-12-07T12:58:34;2.50;99.90
17726;DHT22;8983;53.156;17.960;2022-12-07T13:04:47;2.50;99.90
17726;DHT22;8983;53.156;17.960;2022-12-07T13:07:54;2.50;99.90
17726;DHT22;8983;53.156;17.960;2022-12-07T13:10:39;2.50;99.90
17726;DHT22;8983;53.156;17.960;2022-12-07T13:13:32;2.50;99.90
17726;DHT22;8983;53.156;17.960;2022-12-07T13:16:38;2.50;99.90
17726;DHT22;8983;53.156;17.960;2022-12-07T13:22:43;2.50;99.90
17726;DHT22;8983;53.156;17.960;2022-12-07T13:25:18;2.40;99.90
17726;DHT22;8983;53.156;17.960;2022-12-07T13:27:52;2.50;99.90
17726;DHT22;8983;53.156;17.960;2022-12-07T13:30:23;2.50;99.90
17726;DHT22;8983;53.156;17.960;2022-12-07T13:32:53;2.50;99.90
17726;DHT22;8983;53.156;17.960;2022-12-07T13:35:32;2.40;99.90
17726;DHT22;8983;53.156;17.960;2022-12-07T13:38:05;2.40;99.90
17726;DHT22;8983;53.156;17.960;2022-12-07T13:40:33;2.40;99.90
17726;DHT22;8983;53.156;17.960;2022-12-07T13:43:03;2.40;99.90
17726;DHT22;8983;53.156;17.960;2022-12-07T13:45:33;2.30;99.90
17726;DHT22;8983;53.156;17.960;2022-12-07T13:48:30;2.30;99.90
17726;DHT22;8983;53.156;17.960;2022-12-07T13:51:02;2.30;99.90
17726;DHT22;8983;53.156;17.960;2022-12-07T13:53:32;2.30;99.90
17726;DHT22;8983;53.156;17.960;2022-12-07T13:56:01;2.40;99.90
17726;DHT22;8983;53.156;17.960;2022-12-07T13:58:31;2.40;99.90
17726;DHT22;8983;53.156;17.960;2022-12-07T14:01:00;2.40;99.90
17726;DHT22;8983;53.156;17.960;2022-12-07T14:03:31;2.40;99.90
17726;DHT22;8983;53.156;17.960;2022-12-07T14:06:06;2.40;99.90
17726;DHT22;8983;53.156;17.960;2022-12-07T14:08:35;2.40;99.90
17726;DHT22;8983;53.156;17.960;2022-12-07T14:11:04;2.40;99.90
17726;DHT22;8983;53.156;17.960;2022-12-07T14:13:33;2.30;99.90
17726;DHT22;8983;53.156;17.960;2022-12-07T14:16:04;2.30;99.90
17726;DHT22;8983;53.156;17.960;2022-12-07T14:18:37;2.30;99.90
17726;DHT22;8983;53.156;17.960;2022-12-07T14:21:13;2.30;99.90
17726;DHT22;8983;53.156;17.960;2022-12-07T14:23:43;2.30;99.90
17726;DHT22;8983;53.156;17.960;2022-12-07T14:26:13;2.20;99.90
17726;DHT22;8983;53.156;17.960;2022-12-07T14:28:43;2.20;99.90
17726;DHT22;8983;53.156;17.960;2022-12-07T14:31:12;2.20;99.90
17726;DHT22;8983;53.156;17.960;2022-12-07T14:33:51;2.20;99.90
17726;DHT22;8983;53.156;17.960;2022-12-07T14:36:19;2.20;99.90
17726;DHT22;8983;53.156;17.960;2022-12-07T14:38:49;2.20;99.90
17726;DHT22;8983;53.156;17.960;2022-12-07T14:41:21;2.20;99.90
17726;DHT22;8983;53.156;17.960;2022-12-07T14:44:10;2.20;99.90
17726;DHT22;8983;53.156;17.960;2022-12-07T14:46:58;2.20;99.90
17726;DHT22;8983;53.156;17.960;2022-12-07T14:49:46;2.20;99.90
17726;DHT22;8983;53.156;17.960;2022-12-07T14:52:17;2.20;99.90
17726;DHT22;8983;53.156;17.960;2022-12-07T14:55:13;2.30;99.90
17726;DHT22;8983;53.156;17.960;2022-12-07T14:57:41;2.20;99.90
17726;DHT22;8983;53.156;17.960;2022-12-07T15:00:14;2.20;99.90
17726;DHT22;8983;53.156;17.960;2022-12-07T15:02:43;2.20;99.90
17726;DHT22;8983;53.156;17.960;2022-12-07T15:05:11;2.20;99.90
17726;DHT22;8983;53.156;17.960;2022-12-07T15:07:43;2.20;99.90
17726;DHT22;8983;53.156;17.960;2022-12-07T15:10:16;2.30;99.90
17726;DHT22;8983;53.156;17.960;2022-12-07T15:12:49;2.30;99.90
17726;DHT22;8983;53.156;17.960;2022-12-07T15:15:17;2.20;99.90
17726;DHT22;8983;53.156;17.960;2022-12-07T15:17:45;2.20;99.90
17726;DHT22;8983;53.156;17.960;2022-12-07T15:20:14;2.20;99.90
17726;DHT22;8983;53.156;17.960;2022-12-07T15:22:43;2.20;99.90
17726;DHT22;8983;53.156;17.960;2022-12-07T15:25:14;2.10;99.90
17726;DHT22;8983;53.156;17.960;2022-12-07T15:27:42;2.10;99.90
17726;DHT22;8983;53.156;17.960;2022-12-07T15:30:10;2.10;99.90
17726;DHT22;8983;53.156;17.960;2022-12-07T15:32:38;2.10;99.90
17726;DHT22;8983;53.156;17.960;2022-12-07T15:35:07;2.10;99.90
17726;DHT22;8983;53.156;17.960;2022-12-07T15:37:35;2.20;99.90
17726;DHT22;8983;53.156;17.960;2022-12-07T15:40:04;2.20;99.90
17726;DHT22;8983;53.156;17.960;2022-12-07T15:42:35;2.10;99.90
17726;DHT22;8983;53.156;17.960;2022-12-07T15:45:04;2.10;99.90
17726;DHT22;8983;53.156;17.960;2022-12-07T15:47:35;2.10;99.90
17726;DHT22;8983;53.156;17.960;2022-12-07T15:50:23;2.10;99.90
17726;DHT22;8983;53.156;17.960;2022-12-07T15:52:51;2.10;99.90
17726;DHT22;8983;53.156;17.960;2022-12-07T15:55:19;2.10;99.90
17726;DHT22;8983;53.156;17.960;2022-12-07T15:57:49;2.10;99.90
17726;DHT22;8983;53.156;17.960;2022-12-07T16:00:18;2.10;99.90
17726;DHT22;8983;53.156;17.960;2022-12-07T16:02:46;2.10;99.90
17726;DHT22;8983;53.156;17.960;2022-12-07T16:05:14;2.10;99.90
17726;DHT22;8983;53.156;17.960;2022-12-07T16:07:42;2.10;99.90
17726;DHT22;8983;53.156;17.960;2022-12-07T16:10:13;2.10;99.90
17726;DHT22;8983;53.156;17.960;2022-12-07T16:12:41;2.10;99.90
17726;DHT22;8983;53.156;17.960;2022-12-07T16:15:10;2.00;99.90
17726;DHT22;8983;53.156;17.960;2022-12-07T16:17:38;2.00;99.90
17726;DHT22;8983;53.156;17.960;2022-12-07T16:20:07;1.90;99.90
17726;DHT22;8983;53.156;17.960;2022-12-07T16:22:35;2.00;99.90
17726;DHT22;8983;53.156;17.960;2022-12-07T16:25:04;2.00;99.90
17726;DHT22;8983;53.156;17.960;2022-12-07T16:27:32;2.00;99.90
17726;DHT22;8983;53.156;17.960;2022-12-07T16:30:00;1.90;99.90
17726;DHT22;8983;53.156;17.960;2022-12-07T16:32:29;1.90;99.90